Time;durP1;ratioP1;P1;durP2;ratioP2;P2;SDS_P1;SDS_P2;PMS_P1;PMS_P2;Temp;Humidity;BMP_temperature;BMP_pressure;BME280_temperature;BME280_humidity;BME280_pressure;Samples;Min_cycle;Max_cycle;Signal;HPM_P1;HPM_P2
2023/03/28 00:00:33;;;;;;;1.73;1.00;;;4.10;77.10;;;;;;5089453;28;20059;-69
2023/03/28 00:02:59;;;;;;;1.42;0.90;;;4.20;77.30;;;;;;5086663;28;20108;-69
2023/03/28 00:05:24;;;;;;;1.13;0.90;;;4.10;77.20;;;;;;5087780;28;20032;-67
2023/03/28 00:07:52;;;;;;;1.83;0.80;;;4.10;77.90;;;;;;5081582;28;20028;-67
2023/03/28 00:10:18;;;;;;;3.10;1.08;;;4.10;78.00;;;;;;5080248;28;20114;-69
2023/03/28 00:12:44;;;;;;;2.50;1.00;;;4.10;77.40;;;;;;5087680;28;20028;-67
2023/03/28 00:15:10;;;;;;;1.48;0.82;;;4.10;77.40;;;;;;5084347;28;20421;-69
2023/03/28 00:17:36;;;;;;;1.05;0.80;;;4.10;77.50;;;;;;5086176;28;20558;-67
2023/03/28 00:20:03;;;;;;;1.48;1.00;;;4.10;77.50;;;;;;5088909;28;20103;-69
2023/03/28 00:22:32;;;;;;;2.00;1.00;;;4.00;77.50;;;;;;5088291;28;20016;-67
2023/03/28 00:24:57;;;;;;;3.30;1.48;;;4.00;77.50;;;;;;5082099;28;20052;-68
2023/03/28 00:27:24;;;;;;;3.03;1.25;;;4.00;77.60;;;;;;5081029;28;20067;-68
2023/03/28 00:29:50;;;;;;;1.48;1.00;;;4.00;77.60;;;;;;5085409;28;20505;-68
2023/03/28 00:32:15;;;;;;;1.48;1.00;;;4.00;77.60;;;;;;5087783;28;20028;-68
2023/03/28 00:34:41;;;;;;;1.98;1.00;;;4.00;77.60;;;;;;5075755;28;20039;-68
2023/03/28 00:37:09;;;;;;;1.08;0.93;;;4.00;77.70;;;;;;5073056;28;20039;-68
2023/03/28 00:39:35;;;;;;;2.28;0.98;;;4.00;77.70;;;;;;5073083;28;20094;-69
2023/03/28 00:42:02;;;;;;;2.47;0.98;;;4.00;77.70;;;;;;5074110;28;20031;-68
2023/03/28 00:44:46;;;;;;;2.45;1.10;;;4.10;77.70;;;;;;5069977;28;20021;-68
2023/03/28 00:47:50;;;;;;;2.60;1.10;;;4.00;77.70;;;;;;5074503;28;20430;-68
2023/03/28 00:50:36;;;;;;;2.90;0.90;;;4.10;77.70;;;;;;5069466;28;20020;-67
2023/03/28 00:53:17;;;;;;;4.63;1.25;;;4.00;77.70;;;;;;5072864;28;20056;-68
2023/03/28 00:55:49;;;;;;;1.17;0.80;;;4.00;77.80;;;;;;5068519;28;20070;-67
2023/03/28 00:58:21;;;;;;;3.58;0.90;;;4.00;77.80;;;;;;5077013;28;20027;-68
2023/03/28 01:00:47;;;;;;;1.73;0.90;;;4.00;77.80;;;;;;5070367;28;20017;-68
2023/03/28 01:03:14;;;;;;;3.00;0.98;;;4.00;77.80;;;;;;5077621;28;20044;-68
2023/03/28 01:05:42;;;;;;;1.85;0.80;;;3.90;77.90;;;;;;5069943;28;20017;-67
2023/03/28 01:08:16;;;;;;;2.60;0.90;;;3.90;77.90;;;;;;5081712;28;20062;-68
2023/03/28 01:10:43;;;;;;;2.58;0.88;;;4.00;78.00;;;;;;5081431;28;20127;-68
2023/03/28 01:13:12;;;;;;;1.55;0.85;;;3.90;78.00;;;;;;5070945;28;20505;-68
2023/03/28 01:15:38;;;;;;;1.42;1.00;;;3.90;78.00;;;;;;5073247;28;20804;-68
2023/03/28 01:18:09;;;;;;;3.83;1.10;;;3.90;78.10;;;;;;5075742;28;20063;-68
2023/03/28 01:21:05;;;;;;;0.85;0.82;;;3.90;78.10;;;;;;5070582;28;20487;-68
2023/03/28 01:23:51;;;;;;;3.13;1.80;;;3.90;78.20;;;;;;5080200;28;20032;-68
2023/03/28 01:26:42;;;;;;;2.60;1.02;;;3.90;78.20;;;;;;5078994;28;20105;-68
2023/03/28 01:29:37;;;;;;;3.38;1.25;;;3.90;78.20;;;;;;5073987;28;20892;-68
2023/03/28 01:32:02;;;;;;;2.42;1.00;;;3.90;78.20;;;;;;5081238;28;20036;-68
2023/03/28 01:34:40;;;;;;;1.80;0.98;;;3.80;78.20;;;;;;5075644;28;20621;-67
2023/03/28 01:37:16;;;;;;;1.20;1.10;;;3.80;78.20;;;;;;5075346;28;20066;-68
2023/03/28 01:40:21;;;;;;;1.83;0.77;;;3.80;78.30;;;;;;5069668;28;20565;-68
2023/03/28 01:43:01;;;;;;;2.10;1.00;;;3.80;78.40;;;;;;5069290;28;20028;-68
2023/03/28 01:45:42;;;;;;;1.73;0.80;;;3.80;78.50;;;;;;5069685;28;20032;-67
2023/03/28 01:48:13;;;;;;;2.58;0.93;;;3.80;78.50;;;;;;5071202;28;20382;-67
2023/03/28 01:50:48;;;;;;;1.77;0.90;;;3.70;78.40;;;;;;5073488;28;20033;-67
2023/03/28 01:53:31;;;;;;;1.55;0.93;;;3.80;78.50;;;;;;5084294;28;20437;-68
2023/03/28 01:56:02;;;;;;;2.15;0.80;;;3.70;78.40;;;;;;5068333;28;20047;-67
2023/03/28 01:58:52;;;;;;;1.25;0.60;;;3.70;78.40;;;;;;5072904;28;20044;-67
2023/03/28 02:01:29;;;;;;;2.80;0.60;;;3.70;78.50;;;;;;5071613;28;20028;-68
2023/03/28 02:04:01;;;;;;;2.65;0.95;;;3.70;78.50;;;;;;5079122;28;20526;-67
2023/03/28 02:06:29;;;;;;;1.33;0.70;;;3.70;79.10;;;;;;5074401;28;20107;-67
2023/03/28 02:08:56;;;;;;;1.92;1.10;;;3.60;78.60;;;;;;5083873;28;20518;-66
2023/03/28 02:11:25;;;;;;;0.93;0.80;;;3.60;78.60;;;;;;5080118;28;20032;-68
2023/03/28 02:13:56;;;;;;;4.28;0.80;;;3.60;78.70;;;;;;5072690;28;20035;-67
2023/03/28 02:16:24;;;;;;;1.05;0.95;;;3.60;79.30;;;;;;5079621;28;20850;-68
2023/03/28 02:18:55;;;;;;;2.53;0.88;;;3.60;78.60;;;;;;5085575;28;20032;-68
2023/03/28 02:21:26;;;;;;;1.50;0.95;;;3.60;78.70;;;;;;5075774;28;20024;-69
2023/03/28 02:23:53;;;;;;;2.10;1.20;;;3.60;78.70;;;;;;5091413;28;20036;-69
2023/03/28 02:26:21;;;;;;;2.70;1.02;;;3.60;78.70;;;;;;5083570;28;20024;-69
2023/03/28 02:28:51;;;;;;;1.85;1.05;;;3.50;78.70;;;;;;5075308;28;20028;-68
2023/03/28 02:31:17;;;;;;;4.32;1.80;;;3.50;78.80;;;;;;5075497;28;20052;-67
2023/03/28 02:33:45;;;;;;;1.92;1.33;;;3.40;78.90;;;;;;5078949;28;20380;-68
2023/03/28 02:36:29;;;;;;;1.92;0.98;;;3.40;79.10;;;;;;5077580;28;20502;-67
2023/03/28 02:39:10;;;;;;;3.92;1.10;;;3.30;79.20;;;;;;5078523;28;20132;-69
2023/03/28 02:41:47;;;;;;;1.75;0.90;;;3.30;79.10;;;;;;5077083;28;20020;-69
2023/03/28 02:44:44;;;;;;;1.50;0.95;;;3.30;79.10;;;;;;5082004;28;20032;-69
2023/03/28 02:47:31;;;;;;;2.83;0.98;;;3.40;79.10;;;;;;5082233;28;20032;-68
2023/03/28 02:50:21;;;;;;;2.38;0.95;;;3.30;79.00;;;;;;5074050;28;20016;-69
2023/03/28 02:53:13;;;;;;;2.47;0.80;;;3.30;78.90;;;;;;5073243;28;20114;-69
2023/03/28 02:55:43;;;;;;;0.93;0.80;;;3.20;79.00;;;;;;5071905;28;20047;-68
2023/03/28 02:58:36;;;;;;;3.15;0.93;;;3.20;79.10;;;;;;5082154;28;20077;-68
2023/03/28 03:01:05;;;;;;;1.58;1.00;;;3.20;79.30;;;;;;5069778;28;20091;-67
2023/03/28 03:03:35;;;;;;;1.77;1.25;;;3.20;79.30;;;;;;5079708;28;20111;-68
2023/03/28 03:06:04;;;;;;;3.03;1.10;;;3.20;79.90;;;;;;5077066;28;20031;-68
2023/03/28 03:08:30;;;;;;;2.15;1.00;;;3.20;79.30;;;;;;5078218;28;20502;-67
2023/03/28 03:10:56;;;;;;;1.25;1.00;;;3.20;79.30;;;;;;5072985;28;20082;-68
2023/03/28 03:13:22;;;;;;;1.25;0.90;;;3.20;79.30;;;;;;5073910;28;20032;-67
2023/03/28 03:15:48;;;;;;;1.08;1.00;;;3.20;79.40;;;;;;5070342;28;20042;-69
2023/03/28 03:18:15;;;;;;;1.88;1.05;;;3.20;79.40;;;;;;5072021;28;20108;-67
2023/03/28 03:20:44;;;;;;;1.73;0.90;;;3.20;79.50;;;;;;5075780;28;20033;-68
2023/03/28 03:23:10;;;;;;;1.70;1.15;;;3.10;79.50;;;;;;5077222;28;20066;-68
2023/03/28 03:25:36;;;;;;;2.90;1.20;;;3.10;79.50;;;;;;5071025;28;20028;-69
2023/03/28 03:28:02;;;;;;;3.63;1.38;;;3.10;79.60;;;;;;5072803;28;20032;-68
2023/03/28 03:30:28;;;;;;;2.33;1.60;;;3.10;79.60;;;;;;5071239;28;20024;-68
2023/03/28 03:32:54;;;;;;;2.92;1.30;;;3.10;79.60;;;;;;5076112;28;21638;-66
2023/03/28 03:35:20;;;;;;;3.33;1.42;;;3.20;79.60;;;;;;5071490;28;20021;-69
2023/03/28 03:37:46;;;;;;;2.33;1.30;;;3.10;79.80;;;;;;5078822;28;20066;-68
2023/03/28 03:40:12;;;;;;;1.58;1.13;;;3.20;79.60;;;;;;5074698;28;20029;-68
2023/03/28 03:42:37;;;;;;;2.53;1.35;;;3.20;79.60;;;;;;5076303;28;20024;-68
2023/03/28 03:45:04;;;;;;;1.65;1.10;;;3.20;79.40;;;;;;5072117;28;20025;-68
2023/03/28 03:47:30;;;;;;;2.13;1.20;;;3.20;79.40;;;;;;5070757;28;20024;-68
2023/03/28 03:49:55;;;;;;;1.98;1.35;;;3.20;79.50;;;;;;5071026;28;20039;-68
2023/03/28 03:52:21;;;;;;;2.72;1.20;;;3.10;79.60;;;;;;5079430;28;20024;-68
2023/03/28 03:54:46;;;;;;;1.95;1.20;;;3.10;79.60;;;;;;5079018;28;20031;-67
2023/03/28 03:57:12;;;;;;;2.03;1.40;;;3.10;79.60;;;;;;5075108;28;20021;-68
2023/03/28 03:59:37;;;;;;;2.00;1.10;;;3.10;79.50;;;;;;5076303;28;20158;-68
2023/03/28 04:02:03;;;;;;;1.88;1.17;;;3.10;79.60;;;;;;5079165;28;20031;-68
2023/03/28 04:04:29;;;;;;;4.05;1.50;;;3.10;79.60;;;;;;5083469;28;20017;-68
2023/03/28 04:06:57;;;;;;;1.65;1.33;;;3.10;79.60;;;;;;5076375;28;20029;-68
2023/03/28 04:09:26;;;;;;;2.63;1.50;;;3.10;79.70;;;;;;5083294;28;20077;-67
2023/03/28 04:11:52;;;;;;;2.15;1.38;;;3.00;79.70;;;;;;5077005;28;20115;-68
2023/03/28 04:14:18;;;;;;;1.65;1.33;;;3.10;79.80;;;;;;5072704;28;20382;-68
2023/03/28 04:16:43;;;;;;;6.30;1.45;;;3.10;79.80;;;;;;5082036;28;20103;-68
2023/03/28 04:19:12;;;;;;;2.05;1.42;;;3.10;79.80;;;;;;5081756;28;20490;-69
2023/03/28 04:21:41;;;;;;;1.92;1.35;;;3.00;79.70;;;;;;5069935;28;20027;-68
2023/03/28 04:24:07;;;;;;;2.42;1.38;;;3.10;79.70;;;;;;5074085;28;20020;-68
2023/03/28 04:26:36;;;;;;;2.15;1.63;;;3.00;79.70;;;;;;5075296;28;20089;-68
2023/03/28 04:29:03;;;;;;;2.67;1.50;;;3.00;79.70;;;;;;5079319;28;20034;-67
2023/03/28 04:31:34;;;;;;;2.55;1.52;;;3.00;79.80;;;;;;5083560;28;20383;-68
2023/03/28 04:34:02;;;;;;;3.97;1.50;;;3.00;79.90;;;;;;5087914;28;20028;-68
2023/03/28 04:36:28;;;;;;;2.85;1.30;;;3.00;80.00;;;;;;5081517;28;20028;-68
2023/03/28 04:38:57;;;;;;;1.60;1.50;;;3.00;80.00;;;;;;5087160;28;20031;-69
2023/03/28 04:41:24;;;;;;;2.97;1.38;;;3.00;79.90;;;;;;5077951;28;20020;-68
2023/03/28 04:43:50;;;;;;;2.85;1.63;;;2.90;79.90;;;;;;5080753;28;20364;-69
2023/03/28 04:46:16;;;;;;;2.45;1.60;;;2.90;79.90;;;;;;5086413;28;20802;-67
2023/03/28 04:48:42;;;;;;;1.55;1.40;;;2.90;79.90;;;;;;5076039;28;20028;-69
2023/03/28 04:51:07;;;;;;;2.55;1.50;;;2.90;80.00;;;;;;5072025;28;20029;-68
2023/03/28 04:53:33;;;;;;;2.92;1.55;;;2.90;80.10;;;;;;5074196;28;20027;-68
2023/03/28 04:55:58;;;;;;;1.60;1.42;;;2.90;80.10;;;;;;5072523;28;20115;-69
2023/03/28 04:58:24;;;;;;;1.98;1.50;;;2.90;80.40;;;;;;5074864;28;20028;-68
2023/03/28 05:00:50;;;;;;;4.00;1.38;;;2.90;80.30;;;;;;5075707;28;20017;-68
2023/03/28 05:03:19;;;;;;;3.00;1.48;;;2.90;80.30;;;;;;5076106;28;20029;-68
2023/03/28 05:05:51;;;;;;;2.08;1.70;;;2.80;80.30;;;;;;5088824;28;20020;-70
2023/03/28 05:08:19;;;;;;;3.00;1.58;;;2.90;80.30;;;;;;5084669;28;20047;-70
2023/03/28 05:10:45;;;;;;;2.72;1.52;;;2.90;80.30;;;;;;5088386;28;20374;-69
2023/03/28 05:13:11;;;;;;;2.65;1.52;;;2.80;80.20;;;;;;5085445;28;20028;-69
2023/03/28 05:15:37;;;;;;;2.20;1.67;;;2.90;80.40;;;;;;5088469;28;20028;-69
2023/03/28 05:18:03;;;;;;;3.55;1.67;;;2.80;80.30;;;;;;5082895;28;20043;-69
2023/03/28 05:20:29;;;;;;;2.03;1.60;;;2.80;80.30;;;;;;5086079;28;20027;-70
2023/03/28 05:22:56;;;;;;;3.58;1.70;;;2.90;80.40;;;;;;5085585;28;20103;-69
2023/03/28 05:25:21;;;;;;;4.03;1.98;;;2.90;80.40;;;;;;5087269;28;20145;-70
2023/03/28 05:27:47;;;;;;;2.30;1.60;;;2.90;80.40;;;;;;5083635;28;20039;-68
2023/03/28 05:30:14;;;;;;;2.72;1.60;;;2.90;80.30;;;;;;5077553;28;20035;-69
2023/03/28 05:32:39;;;;;;;2.72;1.50;;;2.80;80.20;;;;;;5080976;28;20071;-69
2023/03/28 05:35:08;;;;;;;2.28;1.40;;;2.80;80.30;;;;;;5086729;28;20450;-69
2023/03/28 05:37:34;;;;;;;2.15;1.40;;;2.90;80.30;;;;;;5084963;28;20040;-68
2023/03/28 05:40:00;;;;;;;2.50;1.60;;;2.80;80.30;;;;;;5087650;28;20446;-70
2023/03/28 05:42:25;;;;;;;2.97;1.67;;;2.90;80.30;;;;;;5088823;28;20047;-69
2023/03/28 05:44:51;;;;;;;3.50;1.80;;;2.90;80.30;;;;;;5090029;28;20103;-70
2023/03/28 05:47:17;;;;;;;4.32;1.52;;;3.00;80.40;;;;;;5088635;28;20012;-68
2023/03/28 05:49:43;;;;;;;2.60;1.60;;;3.00;80.10;;;;;;5092592;28;20016;-69
2023/03/28 05:52:09;;;;;;;2.50;1.77;;;3.10;80.00;;;;;;5090135;28;20050;-68
2023/03/28 05:54:35;;;;;;;2.60;1.52;;;3.10;79.80;;;;;;5091134;28;20390;-68
2023/03/28 05:57:00;;;;;;;3.13;1.60;;;3.20;80.10;;;;;;5091268;28;20035;-69
2023/03/28 05:59:26;;;;;;;2.58;1.83;;;3.30;80.60;;;;;;5092066;28;20028;-69
2023/03/28 06:01:52;;;;;;;3.03;1.70;;;3.50;81.20;;;;;;5085258;28;20024;-69
2023/03/28 06:04:18;;;;;;;4.20;1.67;;;4.10;81.00;;;;;;5079211;28;20028;-70
2023/03/28 06:06:44;;;;;;;3.88;1.90;;;5.40;78.80;;;;;;5089469;28;20028;-69
2023/03/28 06:09:11;;;;;;;2.13;1.60;;;6.70;75.20;;;;;;5090699;28;20051;-69
2023/03/28 06:11:36;;;;;;;3.72;1.65;;;7.80;72.20;;;;;;5084029;28;20012;-69
2023/03/28 06:14:02;;;;;;;3.08;1.95;;;8.80;69.60;;;;;;5084221;28;20155;-69
2023/03/28 06:16:27;;;;;;;2.17;1.65;;;9.70;67.40;;;;;;5092925;28;20031;-70
2023/03/28 06:18:53;;;;;;;3.40;1.85;;;10.20;65.60;;;;;;5082425;28;20028;-69
2023/03/28 06:21:19;;;;;;;3.50;1.60;;;10.40;64.50;;;;;;5080214;28;20024;-69
2023/03/28 06:23:45;;;;;;;4.13;1.67;;;10.40;63.90;;;;;;5092206;28;20023;-69
2023/03/28 06:26:11;;;;;;;1.80;1.30;;;10.30;64.00;;;;;;5089592;28;20024;-70
2023/03/28 06:28:36;;;;;;;1.92;1.50;;;10.20;64.60;;;;;;5085730;28;20032;-70
2023/03/28 06:31:02;;;;;;;2.88;1.50;;;10.00;65.40;;;;;;5073898;28;20506;-69
2023/03/28 06:33:28;;;;;;;6.63;1.40;;;9.60;66.10;;;;;;5083643;28;20452;-69
2023/03/28 06:35:54;;;;;;;3.55;1.58;;;9.30;67.00;;;;;;5089025;28;20115;-70
2023/03/28 06:38:19;;;;;;;2.60;1.85;;;8.90;68.00;;;;;;5073536;28;20104;-70
2023/03/28 06:40:45;;;;;;;2.42;1.70;;;8.60;68.60;;;;;;5082631;28;20025;-69
2023/03/28 06:43:11;;;;;;;2.85;1.80;;;8.20;69.50;;;;;;5091190;28;20024;-70
2023/03/28 06:45:36;;;;;;;3.00;2.00;;;7.80;70.30;;;;;;5087351;28;20027;-68
2023/03/28 06:48:02;;;;;;;2.20;1.75;;;7.60;70.80;;;;;;5090014;28;20129;-69
2023/03/28 06:50:27;;;;;;;3.05;1.60;;;7.50;71.10;;;;;;5086721;28;20032;-70
2023/03/28 06:52:53;;;;;;;3.13;2.00;;;7.40;71.30;;;;;;5087928;28;20028;-70
2023/03/28 06:55:19;;;;;;;6.05;2.30;;;7.20;71.10;;;;;;5091614;28;20039;-68
2023/03/28 06:57:44;;;;;;;3.97;2.33;;;6.80;71.20;;;;;;5090433;28;20028;-70
2023/03/28 07:00:10;;;;;;;5.57;2.22;;;6.50;71.60;;;;;;5086015;28;20082;-69
2023/03/28 07:02:36;;;;;;;5.13;2.03;;;6.40;72.30;;;;;;5075930;28;20085;-70
2023/03/28 07:05:01;;;;;;;4.88;2.38;;;6.30;72.50;;;;;;5083390;28;20020;-70
2023/03/28 07:07:27;;;;;;;2.85;1.80;;;6.20;72.60;;;;;;5086959;28;20548;-69
2023/03/28 07:09:53;;;;;;;4.15;1.70;;;6.20;72.90;;;;;;5080313;28;20055;-69
2023/03/28 07:12:19;;;;;;;3.35;2.00;;;6.30;72.90;;;;;;5090310;28;20100;-69
2023/03/28 07:14:46;;;;;;;3.13;1.83;;;6.30;72.80;;;;;;5089944;28;20061;-70
2023/03/28 07:17:12;;;;;;;3.80;2.30;;;6.30;72.90;;;;;;5081509;28;20103;-69
2023/03/28 07:19:37;;;;;;;4.50;2.10;;;6.20;72.70;;;;;;5084422;28;20111;-67
2023/03/28 07:22:03;;;;;;;2.13;1.70;;;6.20;73.00;;;;;;5086322;28;20020;-69
2023/03/28 07:24:29;;;;;;;2.90;1.70;;;6.30;73.10;;;;;;5090943;28;20496;-71
2023/03/28 07:26:54;;;;;;;6.47;2.30;;;6.50;73.00;;;;;;5089138;28;20030;-70
2023/03/28 07:29:20;;;;;;;3.95;2.65;;;6.60;72.60;;;;;;5088578;28;20773;-70
2023/03/28 07:31:46;;;;;;;6.40;2.40;;;6.40;72.40;;;;;;5087094;28;20028;-71
2023/03/28 07:34:11;;;;;;;5.57;2.17;;;6.30;72.70;;;;;;5083522;28;20052;-71
2023/03/28 07:36:38;;;;;;;4.20;2.30;;;6.30;73.10;;;;;;5076999;28;20048;-69
2023/03/28 07:39:04;;;;;;;4.68;2.17;;;6.30;73.20;;;;;;5086114;28;20032;-69
2023/03/28 07:41:30;;;;;;;2.65;2.20;;;6.20;73.30;;;;;;5089863;28;20020;-69
2023/03/28 07:43:56;;;;;;;4.32;2.13;;;6.20;73.40;;;;;;5088680;28;20506;-69
2023/03/28 07:46:22;;;;;;;3.10;1.80;;;6.20;73.50;;;;;;5086918;28;20573;-69
2023/03/28 07:48:48;;;;;;;3.75;1.80;;;6.30;73.70;;;;;;5089498;28;20039;-69
2023/03/28 07:51:14;;;;;;;6.03;2.30;;;6.30;73.60;;;;;;5090426;28;20028;-69
2023/03/28 07:53:40;;;;;;;7.00;2.30;;;6.30;73.50;;;;;;5090813;28;20107;-70
2023/03/28 07:56:10;;;;;;;3.83;2.53;;;6.30;73.70;;;;;;5087095;28;20027;-70
2023/03/28 07:58:38;;;;;;;5.15;2.83;;;6.20;73.70;;;;;;5087427;28;20397;-69
2023/03/28 08:01:09;;;;;;;6.25;2.88;;;6.30;73.80;;;;;;5089573;28;20024;-69
2023/03/28 08:03:35;;;;;;;4.35;2.80;;;6.30;73.70;;;;;;5090563;28;20085;-68
2023/03/28 08:06:04;;;;;;;3.90;2.78;;;6.30;73.70;;;;;;5084844;28;20402;-69
2023/03/28 08:08:30;;;;;;;6.93;3.05;;;6.30;73.80;;;;;;5084970;28;20016;-69
2023/03/28 08:10:56;;;;;;;3.58;2.10;;;6.40;73.90;;;;;;5087060;28;20534;-70
2023/03/28 08:13:23;;;;;;;3.95;2.30;;;6.60;73.90;;;;;;5086515;28;20099;-68
2023/03/28 08:15:50;;;;;;;4.97;2.78;;;6.60;73.60;;;;;;5085822;28;20363;-69
2023/03/28 08:18:19;;;;;;;4.00;2.80;;;6.70;73.40;;;;;;5084712;28;20110;-69
2023/03/28 08:20:46;;;;;;;6.05;3.22;;;6.60;73.10;;;;;;5084403;28;20070;-70
2023/03/28 08:23:12;;;;;;;6.35;2.55;;;6.40;73.00;;;;;;5086444;28;20055;-70
2023/03/28 08:25:37;;;;;;;3.88;2.70;;;6.50;73.50;;;;;;5089371;28;20043;-68
2023/03/28 08:28:03;;;;;;;3.78;2.30;;;6.70;73.40;;;;;;5088710;28;20020;-70
2023/03/28 08:30:29;;;;;;;5.10;2.58;;;6.80;73.20;;;;;;5080814;28;20070;-68
2023/03/28 08:32:54;;;;;;;4.30;2.20;;;6.90;73.10;;;;;;5088686;28;20031;-69
2023/03/28 08:35:20;;;;;;;6.07;2.50;;;7.00;73.00;;;;;;5083518;28;20142;-69
2023/03/28 08:37:46;;;;;;;4.35;2.75;;;7.10;72.70;;;;;;5090162;28;20028;-69
2023/03/28 08:40:16;;;;;;;5.72;2.95;;;7.20;72.50;;;;;;5084655;28;20029;-68
2023/03/28 08:42:56;;;;;;;3.55;2.33;;;7.30;72.30;;;;;;5084295;28;20363;-69
2023/03/28 08:45:44;;;;;;;3.13;1.88;;;7.40;72.30;;;;;;5085939;28;20035;-69
2023/03/28 08:48:14;;;;;;;5.97;2.38;;;7.60;72.10;;;;;;5089080;28;20027;-68
2023/03/28 08:50:55;;;;;;;4.95;3.00;;;7.80;71.60;;;;;;5088229;28;20023;-70
2023/03/28 08:53:38;;;;;;;7.30;2.60;;;7.70;71.00;;;;;;5083465;28;20036;-69
2023/03/28 08:56:06;;;;;;;5.22;2.67;;;7.70;71.30;;;;;;5077733;28;20029;-68
2023/03/28 08:58:50;;;;;;;5.70;2.88;;;7.70;71.10;;;;;;5087252;28;20418;-67
2023/03/28 09:01:22;;;;;;;6.13;2.38;;;7.60;71.00;;;;;;5083746;28;20016;-68
2023/03/28 09:03:49;;;;;;;6.45;2.75;;;7.70;71.40;;;;;;5083783;28;20020;-69
2023/03/28 09:06:35;;;;;;;3.35;1.90;;;7.70;71.00;;;;;;5078820;28;20029;-69
2023/03/28 09:09:38;;;;;;;6.82;2.00;;;7.90;71.20;;;;;;5087259;28;20054;-69
2023/03/28 09:12:22;;;;;;;4.97;2.10;;;8.10;71.10;;;;;;5082743;28;20028;-68
2023/03/28 09:14:59;;;;;;;5.63;2.28;;;8.10;70.50;;;;;;5091035;28;20016;-68
2023/03/28 09:17:47;;;;;;;6.38;2.60;;;8.20;70.20;;;;;;5091422;28;20032;-69
2023/03/28 09:20:31;;;;;;;4.82;2.00;;;8.10;69.70;;;;;;5086163;28;20039;-68
2023/03/28 09:23:12;;;;;;;3.63;2.17;;;8.10;69.60;;;;;;5091921;28;20024;-68
2023/03/28 09:25:56;;;;;;;2.97;1.70;;;8.30;70.00;;;;;;5084854;28;20020;-67
2023/03/28 09:28:34;;;;;;;5.82;2.30;;;8.40;69.60;;;;;;5088042;28;20052;-69
2023/03/28 09:31:00;;;;;;;4.03;2.08;;;8.50;69.30;;;;;;5083421;28;20419;-68
2023/03/28 09:33:42;;;;;;;2.45;1.67;;;8.50;69.30;;;;;;5088399;28;20024;-68
2023/03/28 09:36:15;;;;;;;2.78;1.83;;;8.50;68.90;;;;;;5080460;28;20103;-69
2023/03/28 09:39:07;;;;;;;4.80;1.95;;;8.40;68.40;;;;;;5088150;28;20035;-69
2023/03/28 09:41:59;;;;;;;2.33;1.42;;;8.40;68.20;;;;;;5085671;28;20062;-69
2023/03/28 09:44:35;;;;;;;2.27;1.60;;;8.40;68.60;;;;;;5093449;28;20070;-68
2023/03/28 09:47:03;;;;;;;2.88;1.55;;;8.50;68.80;;;;;;5091138;28;20028;-68
2023/03/28 09:49:29;;;;;;;4.45;2.00;;;8.50;68.40;;;;;;5092047;28;20020;-69
2023/03/28 09:51:56;;;;;;;2.42;1.65;;;8.40;67.10;;;;;;5085960;28;20032;-68
2023/03/28 09:54:36;;;;;;;3.45;1.73;;;8.50;67.60;;;;;;5093488;28;20023;-69
2023/03/28 09:57:04;;;;;;;5.13;2.50;;;8.70;67.60;;;;;;5077473;28;20034;-69
2023/03/28 09:59:32;;;;;;;4.10;2.40;;;8.80;66.00;;;;;;5092245;28;20494;-70
2023/03/28 10:01:59;;;;;;;4.25;2.13;;;8.70;64.90;;;;;;5093177;28;20028;-70
2023/03/28 10:04:28;;;;;;;7.47;2.60;;;8.80;65.50;;;;;;5086138;28;20048;-69
2023/03/28 10:07:15;;;;;;;4.50;2.00;;;8.70;63.00;;;;;;5085508;28;20024;-70
2023/03/28 10:09:59;;;;;;;3.80;2.08;;;8.70;63.60;;;;;;5087670;28;20074;-68
2023/03/28 10:12:33;;;;;;;2.60;1.70;;;8.80;64.00;;;;;;5092874;28;20028;-69
2023/03/28 10:14:59;;;;;;;3.00;1.90;;;8.80;63.80;;;;;;5075155;28;20028;-69
2023/03/28 10:17:31;;;;;;;4.35;2.20;;;8.90;64.10;;;;;;5077299;28;20039;-69
2023/03/28 10:20:17;;;;;;;2.65;1.75;;;8.90;64.30;;;;;;5073269;28;20043;-69
2023/03/28 10:22:45;;;;;;;3.40;1.90;;;8.90;64.40;;;;;;5085177;28;20028;-69
2023/03/28 10:25:20;;;;;;;4.13;1.90;;;9.10;64.70;;;;;;5092307;28;20483;-69
2023/03/28 10:27:46;;;;;;;4.25;1.83;;;9.10;64.70;;;;;;5088206;28;20421;-69
2023/03/28 10:30:27;;;;;;;3.33;1.63;;;9.20;64.60;;;;;;5090339;28;20024;-69
2023/03/28 10:33:41;;;;;;;5.30;1.80;;;9.30;64.70;;;;;;5081839;28;20037;-69
2023/03/28 10:36:09;;;;;;;7.45;2.97;;;9.30;63.70;;;;;;5069908;28;20025;-69
2023/03/28 10:38:52;;;;;;;3.05;2.22;;;9.30;62.40;;;;;;5073754;28;20047;-69
2023/03/28 10:41:21;;;;;;;7.43;2.85;;;9.30;63.00;;;;;;5089366;28;20031;-68
2023/03/28 10:43:47;;;;;;;3.30;2.20;;;9.20;61.70;;;;;;5089711;28;20016;-69
2023/03/28 10:46:31;;;;;;;4.82;2.05;;;9.20;62.40;;;;;;5073896;28;20031;-68
2023/03/28 10:49:05;;;;;;;5.82;2.80;;;9.30;62.80;;;;;;5072882;28;20037;-69
2023/03/28 10:51:32;;;;;;;4.93;2.40;;;9.30;61.70;;;;;;5072249;28;20075;-68
2023/03/28 10:54:04;;;;;;;4.30;2.17;;;9.30;62.30;;;;;;5089467;28;20020;-68
2023/03/28 10:56:40;;;;;;;6.05;2.25;;;9.40;62.20;;;;;;5084286;28;20147;-68
2023/03/28 10:59:31;;;;;;;5.07;2.13;;;9.40;60.90;;;;;;5089756;28;20030;-69
2023/03/28 11:01:59;;;;;;;7.25;2.75;;;9.40;61.90;;;;;;5092227;28;20028;-68
2023/03/28 11:05:06;;;;;;;7.43;2.80;;;9.40;61.00;;;;;;5086564;28;20025;-67
2023/03/28 11:08:05;;;;;;;4.03;2.20;;;9.40;60.60;;;;;;5082761;28;20040;-68
2023/03/28 11:10:51;;;;;;;3.88;2.10;;;9.40;61.60;;;;;;5083847;28;20048;-68
2023/03/28 11:13:29;;;;;;;1.83;1.60;;;9.40;61.80;;;;;;5083003;28;20025;-67
2023/03/28 11:16:13;;;;;;;5.75;1.75;;;9.60;62.30;;;;;;5089975;28;20027;-69
2023/03/28 11:19:10;;;;;;;2.47;1.58;;;9.60;61.80;;;;;;5084545;28;20023;-68
2023/03/28 11:22:06;;;;;;;2.38;1.60;;;9.70;61.90;;;;;;5086433;28;20027;-68
2023/03/28 11:24:48;;;;;;;5.57;2.00;;;9.90;62.00;;;;;;5088015;28;20085;-68
2023/03/28 11:27:25;;;;;;;4.20;2.22;;;9.90;61.00;;;;;;5089245;28;20024;-68
2023/03/28 11:29:57;;;;;;;2.97;1.90;;;9.80;60.40;;;;;;5088355;28;20094;-67
2023/03/28 11:32:55;;;;;;;3.10;2.05;;;9.70;60.20;;;;;;5085491;28;20024;-69
2023/03/28 11:35:35;;;;;;;5.25;2.03;;;9.60;58.90;;;;;;5089118;28;20138;-67
2023/03/28 11:38:14;;;;;;;2.70;1.70;;;9.40;58.40;;;;;;5088403;28;20386;-68
2023/03/28 11:40:51;;;;;;;3.38;1.85;;;9.50;59.50;;;;;;5088662;28;20012;-66
2023/03/28 11:43:31;;;;;;;5.55;2.15;;;9.60;59.70;;;;;;5090481;28;20023;-68
2023/03/28 11:46:07;;;;;;;5.97;2.28;;;9.50;57.60;;;;;;5089690;28;20052;-67
2023/03/28 11:48:42;;;;;;;3.40;2.08;;;9.50;58.30;;;;;;5082993;28;20028;-69
2023/03/28 11:51:35;;;;;;;1.90;1.70;;;9.40;58.20;;;;;;5089360;28;20023;-69
2023/03/28 11:54:24;;;;;;;3.33;1.80;;;9.60;59.10;;;;;;5089193;28;20046;-68
2023/03/28 11:57:11;;;;;;;6.80;1.90;;;9.80;58.80;;;;;;5083630;28;20059;-68
2023/03/28 11:59:52;;;;;;;3.15;1.83;;;9.90;58.20;;;;;;5080302;28;20032;-69
2023/03/28 12:02:30;;;;;;;2.90;1.80;;;9.90;58.20;;;;;;5087651;28;20455;-69
2023/03/28 12:05:21;;;;;;;3.42;2.03;;;9.90;57.50;;;;;;5084111;28;20016;-69
2023/03/28 12:08:06;;;;;;;3.38;1.67;;;9.80;56.90;;;;;;5083521;28;20024;-68
2023/03/28 12:10:35;;;;;;;4.40;1.80;;;9.80;56.30;;;;;;5085054;28;20035;-68
2023/03/28 12:13:30;;;;;;;2.63;1.90;;;9.80;57.00;;;;;;5084174;28;20035;-67
2023/03/28 12:16:07;;;;;;;5.78;2.00;;;10.00;57.30;;;;;;5082994;28;20016;-68
2023/03/28 12:18:45;;;;;;;4.10;1.90;;;10.00;56.70;;;;;;5080047;28;20171;-67
2023/03/28 12:21:34;;;;;;;5.68;2.00;;;10.00;56.60;;;;;;5076751;28;20059;-68
2023/03/28 12:24:22;;;;;;;3.78;2.15;;;10.00;56.20;;;;;;5081258;28;20027;-66
2023/03/28 12:26:56;;;;;;;3.05;2.15;;;9.90;55.20;;;;;;5085992;28;20053;-68
2023/03/28 12:29:53;;;;;;;2.95;1.80;;;10.00;56.70;;;;;;5092514;28;20028;-69
2023/03/28 12:32:32;;;;;;;4.38;1.90;;;10.10;56.20;;;;;;5086441;28;20035;-68
2023/03/28 12:35:11;;;;;;;3.85;1.90;;;10.20;56.90;;;;;;5086889;28;20486;-68
2023/03/28 12:37:45;;;;;;;3.97;1.80;;;10.50;56.60;;;;;;5082997;28;20036;-69
2023/03/28 12:40:33;;;;;;;4.90;1.80;;;10.50;56.20;;;;;;5092381;28;20081;-68
2023/03/28 12:42:59;;;;;;;2.78;1.85;;;10.60;56.70;;;;;;5085922;28;20377;-68
2023/03/28 12:45:30;;;;;;;3.90;2.00;;;10.70;56.30;;;;;;5074386;28;20051;-67
2023/03/28 12:48:04;;;;;;;3.10;1.90;;;10.60;55.80;;;;;;5075114;28;20085;-68
2023/03/28 12:50:54;;;;;;;3.33;1.70;;;10.60;56.60;;;;;;5074499;28;20093;-68
2023/03/28 12:53:22;;;;;;;6.55;1.80;;;10.70;56.90;;;;;;5090732;28;20086;-68
2023/03/28 12:55:50;;;;;;;3.65;1.65;;;10.70;57.10;;;;;;5090693;28;20016;-67
2023/03/28 12:58:25;;;;;;;5.07;2.00;;;10.70;56.80;;;;;;5086981;28;20547;-68
2023/03/28 13:01:16;;;;;;;4.97;1.90;;;10.80;55.80;;;;;;5093193;28;20018;-68
2023/03/28 13:04:08;;;;;;;5.75;2.10;;;10.60;56.00;;;;;;5091529;28;20024;-68
2023/03/28 13:06:46;;;;;;;4.13;1.92;;;10.60;56.40;;;;;;5095354;28;20044;-68
2023/03/28 13:09:37;;;;;;;5.05;2.00;;;10.60;57.30;;;;;;5093291;28;20528;-68
2023/03/28 13:12:24;;;;;;;3.23;2.07;;;10.60;56.90;;;;;;5087465;28;20020;-68
2023/03/28 13:15:20;;;;;;;5.47;2.00;;;10.70;56.80;;;;;;5091470;28;20282;-69
2023/03/28 13:18:07;;;;;;;3.75;2.50;;;10.80;56.90;;;;;;5081608;28;20040;-69
2023/03/28 13:20:33;;;;;;;5.40;2.42;;;10.70;55.80;;;;;;5088108;28;20398;-69
2023/03/28 13:23:06;;;;;;;4.15;2.20;;;10.70;55.80;;;;;;5094373;28;20032;-69